Bend, Oregon
Current Conditions -  °F | °C
As of 1:15 AM on Wednesday 26 Nov 2014 (Local Time) from KBDN Reporting Station
Clear Clear  
Wind Chill: 40°   Ceiling: Unl
Heat Index: 46°   Visibility: 10mi
Dew Point: 37°   Wind: 14mph
Humidity: 71%   Direction: 220°SW
Pressure: 30.31"   Gusts: 21mph
Location:  44.06°N, 121.31°W
Report Text: KBDN 260915Z AUTO 22012G18KT 10SM CLR 08/03 A3031 RMK AO2
Loading
Personal Weather Stations






























Interactive Weather Map New forecast layout! Learn more

10-Day Weather Forecast

Advertisements
Track Severe Weather on mobile